sensor_id;sensor_type;location;lat;lon;timestamp;P1;durP1;ratioP1;P2;durP2;ratioP2
30048;SDS011;16879;50.852;15.602;2023-09-19T00:00:23;1.13;;;0.98;;
30048;SDS011;16879;50.852;15.602;2023-09-19T00:02:53;2.15;;;1.60;;
30048;SDS011;16879;50.852;15.602;2023-09-19T00:05:29;3.35;;;2.35;;
30048;SDS011;16879;50.852;15.602;2023-09-19T00:08:00;2.88;;;1.70;;
30048;SDS011;16879;50.852;15.602;2023-09-19T00:10:29;8.82;;;3.53;;
30048;SDS011;16879;50.852;15.602;2023-09-19T00:13:00;3.85;;;3.30;;
30048;SDS011;16879;50.852;15.602;2023-09-19T00:15:30;4.78;;;3.25;;
30048;SDS011;16879;50.852;15.602;2023-09-19T00:18:02;5.40;;;2.65;;
30048;SDS011;16879;50.852;15.602;2023-09-19T00:20:31;4.72;;;4.10;;
30048;SDS011;16879;50.852;15.602;2023-09-19T00:23:00;3.80;;;3.40;;
30048;SDS011;16879;50.852;15.602;2023-09-19T00:25:27;4.45;;;3.05;;
30048;SDS011;16879;50.852;15.602;2023-09-19T00:27:54;4.45;;;3.20;;
30048;SDS011;16879;50.852;15.602;2023-09-19T00:30:20;9.65;;;2.58;;
30048;SDS011;16879;50.852;15.602;2023-09-19T00:32:49;6.50;;;2.45;;
30048;SDS011;16879;50.852;15.602;2023-09-19T00:35:22;4.68;;;1.98;;
30048;SDS011;16879;50.852;15.602;2023-09-19T00:37:52;1.52;;;1.42;;
30048;SDS011;16879;50.852;15.602;2023-09-19T00:40:19;3.83;;;1.40;;
30048;SDS011;16879;50.852;15.602;2023-09-19T00:42:46;1.35;;;1.23;;
30048;SDS011;16879;50.852;15.602;2023-09-19T00:45:14;5.15;;;2.33;;
30048;SDS011;16879;50.852;15.602;2023-09-19T00:47:44;1.40;;;1.10;;
30048;SDS011;16879;50.852;15.602;2023-09-19T00:50:15;5.55;;;1.73;;
30048;SDS011;16879;50.852;15.602;2023-09-19T00:52:47;1.02;;;1.00;;
30048;SDS011;16879;50.852;15.602;2023-09-19T00:55:15;1.70;;;1.20;;
30048;SDS011;16879;50.852;15.602;2023-09-19T00:57:44;3.20;;;1.40;;
30048;SDS011;16879;50.852;15.602;2023-09-19T01:00:12;3.75;;;1.08;;
30048;SDS011;16879;50.852;15.602;2023-09-19T01:02:43;1.40;;;1.23;;
30048;SDS011;16879;50.852;15.602;2023-09-19T01:05:10;2.33;;;1.50;;
30048;SDS011;16879;50.852;15.602;2023-09-19T01:07:37;1.45;;;1.35;;
30048;SDS011;16879;50.852;15.602;2023-09-19T01:10:06;2.60;;;1.85;;
30048;SDS011;16879;50.852;15.602;2023-09-19T01:13:22;2.63;;;1.55;;
30048;SDS011;16879;50.852;15.602;2023-09-19T01:18:21;2.53;;;2.22;;
30048;SDS011;16879;50.852;15.602;2023-09-19T01:31:44;3.28;;;1.38;;
30048;SDS011;16879;50.852;15.602;2023-09-19T01:34:12;2.63;;;1.52;;
30048;SDS011;16879;50.852;15.602;2023-09-19T01:36:38;2.58;;;1.52;;
30048;SDS011;16879;50.852;15.602;2023-09-19T01:39:07;2.50;;;1.80;;
30048;SDS011;16879;50.852;15.602;2023-09-19T01:41:38;3.63;;;1.20;;
30048;SDS011;16879;50.852;15.602;2023-09-19T01:44:15;2.10;;;1.33;;
30048;SDS011;16879;50.852;15.602;2023-09-19T01:46:49;3.15;;;1.77;;
30048;SDS011;16879;50.852;15.602;2023-09-19T01:49:18;2.88;;;1.27;;
30048;SDS011;16879;50.852;15.602;2023-09-19T01:52:10;2.17;;;1.73;;
30048;SDS011;16879;50.852;15.602;2023-09-19T01:54:56;4.20;;;1.40;;
30048;SDS011;16879;50.852;15.602;2023-09-19T01:57:29;1.80;;;1.23;;
30048;SDS011;16879;50.852;15.602;2023-09-19T02:00:03;4.45;;;1.60;;
30048;SDS011;16879;50.852;15.602;2023-09-19T02:02:35;3.20;;;1.75;;
30048;SDS011;16879;50.852;15.602;2023-09-19T02:05:03;3.60;;;1.98;;
30048;SDS011;16879;50.852;15.602;2023-09-19T02:07:30;3.00;;;1.60;;
30048;SDS011;16879;50.852;15.602;2023-09-19T02:10:03;3.20;;;2.13;;
30048;SDS011;16879;50.852;15.602;2023-09-19T02:12:31;1.83;;;1.50;;
30048;SDS011;16879;50.852;15.602;2023-09-19T02:15:00;3.28;;;2.67;;
30048;SDS011;16879;50.852;15.602;2023-09-19T02:17:26;4.50;;;1.70;;
30048;SDS011;16879;50.852;15.602;2023-09-19T02:19:55;1.50;;;1.40;;
30048;SDS011;16879;50.852;15.602;2023-09-19T02:22:21;2.65;;;1.60;;
30048;SDS011;16879;50.852;15.602;2023-09-19T02:24:50;3.03;;;2.13;;
30048;SDS011;16879;50.852;15.602;2023-09-19T02:27:16;3.72;;;1.50;;
30048;SDS011;16879;50.852;15.602;2023-09-19T02:29:44;2.40;;;1.65;;
30048;SDS011;16879;50.852;15.602;2023-09-19T02:32:11;2.67;;;1.50;;
30048;SDS011;16879;50.852;15.602;2023-09-19T02:34:37;1.70;;;1.35;;
30048;SDS011;16879;50.852;15.602;2023-09-19T02:37:04;2.72;;;1.70;;
30048;SDS011;16879;50.852;15.602;2023-09-19T02:39:31;1.60;;;1.50;;
30048;SDS011;16879;50.852;15.602;2023-09-19T02:41:57;1.83;;;1.40;;
30048;SDS011;16879;50.852;15.602;2023-09-19T02:44:24;2.30;;;1.35;;
30048;SDS011;16879;50.852;15.602;2023-09-19T02:46:50;2.85;;;1.80;;
30048;SDS011;16879;50.852;15.602;2023-09-19T02:49:16;3.08;;;1.40;;
30048;SDS011;16879;50.852;15.602;2023-09-19T02:51:45;1.75;;;1.63;;
30048;SDS011;16879;50.852;15.602;2023-09-19T02:54:12;2.92;;;1.75;;
30048;SDS011;16879;50.852;15.602;2023-09-19T02:56:38;3.05;;;2.10;;
30048;SDS011;16879;50.852;15.602;2023-09-19T02:59:04;7.60;;;1.88;;
30048;SDS011;16879;50.852;15.602;2023-09-19T03:01:31;4.07;;;1.95;;
30048;SDS011;16879;50.852;15.602;2023-09-19T03:03:57;4.35;;;2.33;;
30048;SDS011;16879;50.852;15.602;2023-09-19T03:06:23;3.05;;;2.38;;
30048;SDS011;16879;50.852;15.602;2023-09-19T03:08:49;4.10;;;2.08;;
30048;SDS011;16879;50.852;15.602;2023-09-19T03:11:16;3.95;;;2.20;;
30048;SDS011;16879;50.852;15.602;2023-09-19T03:13:50;2.63;;;2.00;;
30048;SDS011;16879;50.852;15.602;2023-09-19T03:16:19;9.73;;;2.50;;
30048;SDS011;16879;50.852;15.602;2023-09-19T03:18:47;3.70;;;2.80;;
30048;SDS011;16879;50.852;15.602;2023-09-19T03:21:14;4.38;;;3.20;;
30048;SDS011;16879;50.852;15.602;2023-09-19T03:23:42;4.78;;;2.67;;
30048;SDS011;16879;50.852;15.602;2023-09-19T03:26:11;4.80;;;2.80;;
30048;SDS011;16879;50.852;15.602;2023-09-19T03:28:37;5.45;;;2.35;;
30048;SDS011;16879;50.852;15.602;2023-09-19T03:31:04;3.72;;;2.35;;
30048;SDS011;16879;50.852;15.602;2023-09-19T03:33:31;6.72;;;2.97;;
30048;SDS011;16879;50.852;15.602;2023-09-19T03:35:59;3.03;;;2.50;;
30048;SDS011;16879;50.852;15.602;2023-09-19T03:38:26;3.15;;;2.85;;
30048;SDS011;16879;50.852;15.602;2023-09-19T03:40:53;5.18;;;3.08;;
30048;SDS011;16879;50.852;15.602;2023-09-19T03:43:19;2.60;;;2.45;;
30048;SDS011;16879;50.852;15.602;2023-09-19T03:45:45;5.68;;;2.70;;
30048;SDS011;16879;50.852;15.602;2023-09-19T03:48:12;3.13;;;2.83;;
30048;SDS011;16879;50.852;15.602;2023-09-19T03:50:38;2.67;;;2.47;;
30048;SDS011;16879;50.852;15.602;2023-09-19T03:53:04;5.85;;;2.75;;
30048;SDS011;16879;50.852;15.602;2023-09-19T03:55:32;4.50;;;3.10;;
30048;SDS011;16879;50.852;15.602;2023-09-19T03:58:03;4.93;;;3.10;;
30048;SDS011;16879;50.852;15.602;2023-09-19T04:00:29;3.45;;;2.75;;
30048;SDS011;16879;50.852;15.602;2023-09-19T04:02:55;3.00;;;2.40;;
30048;SDS011;16879;50.852;15.602;2023-09-19T04:05:22;3.55;;;3.25;;
30048;SDS011;16879;50.852;15.602;2023-09-19T04:07:48;4.00;;;3.03;;
30048;SDS011;16879;50.852;15.602;2023-09-19T04:10:18;6.97;;;3.08;;
30048;SDS011;16879;50.852;15.602;2023-09-19T04:12:54;5.28;;;3.33;;
30048;SDS011;16879;50.852;15.602;2023-09-19T04:15:21;5.43;;;3.40;;
30048;SDS011;16879;50.852;15.602;2023-09-19T04:17:54;4.73;;;3.50;;
30048;SDS011;16879;50.852;15.602;2023-09-19T04:20:20;4.65;;;3.08;;
30048;SDS011;16879;50.852;15.602;2023-09-19T04:22:48;4.78;;;3.65;;
30048;SDS011;16879;50.852;15.602;2023-09-19T04:25:15;4.07;;;3.20;;
30048;SDS011;16879;50.852;15.602;2023-09-19T04:27:40;3.90;;;3.20;;
30048;SDS011;16879;50.852;15.602;2023-09-19T04:30:07;3.95;;;3.15;;
30048;SDS011;16879;50.852;15.602;2023-09-19T04:32:40;5.05;;;2.92;;
30048;SDS011;16879;50.852;15.602;2023-09-19T04:35:07;5.30;;;3.50;;
30048;SDS011;16879;50.852;15.602;2023-09-19T04:37:40;3.75;;;3.10;;
30048;SDS011;16879;50.852;15.602;2023-09-19T04:40:09;3.47;;;3.17;;
30048;SDS011;16879;50.852;15.602;2023-09-19T04:42:45;6.78;;;3.72;;
30048;SDS011;16879;50.852;15.602;2023-09-19T04:45:11;7.32;;;3.55;;
30048;SDS011;16879;50.852;15.602;2023-09-19T04:47:37;4.35;;;3.95;;
30048;SDS011;16879;50.852;15.602;2023-09-19T04:50:13;8.23;;;3.95;;
30048;SDS011;16879;50.852;15.602;2023-09-19T04:52:42;4.82;;;4.05;;
30048;SDS011;16879;50.852;15.602;2023-09-19T04:55:10;5.13;;;3.25;;
30048;SDS011;16879;50.852;15.602;2023-09-19T04:57:43;4.35;;;3.80;;
30048;SDS011;16879;50.852;15.602;2023-09-19T05:00:11;7.18;;;4.00;;
30048;SDS011;16879;50.852;15.602;2023-09-19T05:02:39;4.35;;;3.40;;
30048;SDS011;16879;50.852;15.602;2023-09-19T05:05:06;4.25;;;3.85;;
30048;SDS011;16879;50.852;15.602;2023-09-19T05:07:41;5.43;;;3.38;;
30048;SDS011;16879;50.852;15.602;2023-09-19T05:10:08;5.43;;;3.58;;
30048;SDS011;16879;50.852;15.602;2023-09-19T05:12:35;4.30;;;3.13;;
30048;SDS011;16879;50.852;15.602;2023-09-19T05:15:04;8.15;;;3.30;;
30048;SDS011;16879;50.852;15.602;2023-09-19T05:17:34;4.55;;;4.20;;
30048;SDS011;16879;50.852;15.602;2023-09-19T05:20:01;5.28;;;3.15;;
30048;SDS011;16879;50.852;15.602;2023-09-19T05:22:57;4.50;;;3.20;;
30048;SDS011;16879;50.852;15.602;2023-09-19T05:25:28;3.38;;;2.70;;
30048;SDS011;16879;50.852;15.602;2023-09-19T05:27:56;3.03;;;2.67;;
30048;SDS011;16879;50.852;15.602;2023-09-19T05:30:23;3.50;;;3.10;;
30048;SDS011;16879;50.852;15.602;2023-09-19T05:32:49;4.28;;;3.17;;
30048;SDS011;16879;50.852;15.602;2023-09-19T05:35:16;2.90;;;2.65;;
30048;SDS011;16879;50.852;15.602;2023-09-19T05:37:42;3.55;;;3.00;;
30048;SDS011;16879;50.852;15.602;2023-09-19T05:40:08;7.30;;;2.92;;
30048;SDS011;16879;50.852;15.602;2023-09-19T05:42:35;3.00;;;2.80;;
30048;SDS011;16879;50.852;15.602;2023-09-19T05:45:01;3.78;;;2.88;;
30048;SDS011;16879;50.852;15.602;2023-09-19T05:47:27;3.78;;;3.17;;
30048;SDS011;16879;50.852;15.602;2023-09-19T05:49:54;3.60;;;2.80;;
30048;SDS011;16879;50.852;15.602;2023-09-19T05:52:20;3.70;;;2.53;;
30048;SDS011;16879;50.852;15.602;2023-09-19T05:54:47;2.80;;;2.55;;
30048;SDS011;16879;50.852;15.602;2023-09-19T05:57:14;2.80;;;2.50;;
30048;SDS011;16879;50.852;15.602;2023-09-19T05:59:40;3.70;;;2.97;;
30048;SDS011;16879;50.852;15.602;2023-09-19T06:02:08;2.70;;;2.40;;
30048;SDS011;16879;50.852;15.602;2023-09-19T06:04:36;7.45;;;2.88;;
30048;SDS011;16879;50.852;15.602;2023-09-19T06:07:05;5.47;;;2.42;;
30048;SDS011;16879;50.852;15.602;2023-09-19T06:09:31;3.55;;;2.40;;
30048;SDS011;16879;50.852;15.602;2023-09-19T06:11:58;2.60;;;2.40;;
30048;SDS011;16879;50.852;15.602;2023-09-19T06:14:28;6.97;;;2.60;;
30048;SDS011;16879;50.852;15.602;2023-09-19T06:16:55;5.20;;;2.03;;
30048;SDS011;16879;50.852;15.602;2023-09-19T06:19:21;8.93;;;3.13;;
30048;SDS011;16879;50.852;15.602;2023-09-19T06:21:48;5.47;;;3.13;;
30048;SDS011;16879;50.852;15.602;2023-09-19T06:24:14;3.58;;;1.90;;
30048;SDS011;16879;50.852;15.602;2023-09-19T06:26:41;3.92;;;2.53;;
30048;SDS011;16879;50.852;15.602;2023-09-19T06:29:07;3.05;;;1.88;;
30048;SDS011;16879;50.852;15.602;2023-09-19T06:31:33;3.08;;;2.10;;
30048;SDS011;16879;50.852;15.602;2023-09-19T06:33:59;2.28;;;2.08;;
30048;SDS011;16879;50.852;15.602;2023-09-19T06:36:24;2.47;;;1.92;;
30048;SDS011;16879;50.852;15.602;2023-09-19T06:38:50;1.98;;;1.88;;
30048;SDS011;16879;50.852;15.602;2023-09-19T06:41:17;3.33;;;2.15;;
30048;SDS011;16879;50.852;15.602;2023-09-19T06:43:43;4.00;;;2.08;;
30048;SDS011;16879;50.852;15.602;2023-09-19T06:46:09;4.00;;;2.00;;
30048;SDS011;16879;50.852;15.602;2023-09-19T06:48:37;4.35;;;2.55;;
30048;SDS011;16879;50.852;15.602;2023-09-19T06:51:04;12.93;;;2.55;;
30048;SDS011;16879;50.852;15.602;2023-09-19T06:53:33;2.58;;;2.30;;
30048;SDS011;16879;50.852;15.602;2023-09-19T06:56:00;7.10;;;2.38;;
30048;SDS011;16879;50.852;15.602;2023-09-19T06:58:27;4.68;;;2.40;;
30048;SDS011;16879;50.852;15.602;2023-09-19T07:00:53;2.90;;;2.33;;
30048;SDS011;16879;50.852;15.602;2023-09-19T07:03:19;3.38;;;2.28;;
30048;SDS011;16879;50.852;15.602;2023-09-19T07:05:48;5.28;;;2.55;;
30048;SDS011;16879;50.852;15.602;2023-09-19T07:08:14;4.30;;;2.45;;
30048;SDS011;16879;50.852;15.602;2023-09-19T07:10:41;3.78;;;2.05;;
30048;SDS011;16879;50.852;15.602;2023-09-19T07:13:14;4.25;;;2.55;;
30048;SDS011;16879;50.852;15.602;2023-09-19T07:15:42;2.25;;;1.90;;
30048;SDS011;16879;50.852;15.602;2023-09-19T07:18:14;3.90;;;2.25;;
30048;SDS011;16879;50.852;15.602;2023-09-19T07:20:42;2.78;;;1.88;;
30048;SDS011;16879;50.852;15.602;2023-09-19T07:23:23;4.78;;;2.17;;
30048;SDS011;16879;50.852;15.602;2023-09-19T07:25:51;5.00;;;2.03;;
30048;SDS011;16879;50.852;15.602;2023-09-19T07:28:17;2.47;;;1.80;;
30048;SDS011;16879;50.852;15.602;2023-09-19T07:30:44;2.38;;;1.67;;
30048;SDS011;16879;50.852;15.602;2023-09-19T07:33:11;2.17;;;1.75;;
30048;SDS011;16879;50.852;15.602;2023-09-19T07:35:37;4.15;;;1.83;;
30048;SDS011;16879;50.852;15.602;2023-09-19T07:38:06;2.53;;;1.65;;
30048;SDS011;16879;50.852;15.602;2023-09-19T07:40:35;3.70;;;1.80;;
30048;SDS011;16879;50.852;15.602;2023-09-19T07:43:01;5.32;;;1.90;;
30048;SDS011;16879;50.852;15.602;2023-09-19T07:45:29;5.78;;;2.58;;
30048;SDS011;16879;50.852;15.602;2023-09-19T07:47:58;3.13;;;1.88;;
30048;SDS011;16879;50.852;15.602;2023-09-19T08:06:20;3.83;;;1.70;;
30048;SDS011;16879;50.852;15.602;2023-09-19T08:08:46;2.60;;;1.63;;
30048;SDS011;16879;50.852;15.602;2023-09-19T08:11:16;2.55;;;1.60;;
30048;SDS011;16879;50.852;15.602;2023-09-19T08:13:47;3.08;;;1.77;;
30048;SDS011;16879;50.852;15.602;2023-09-19T08:16:17;3.55;;;2.15;;
30048;SDS011;16879;50.852;15.602;2023-09-19T08:18:47;2.55;;;1.92;;
30048;SDS011;16879;50.852;15.602;2023-09-19T08:21:17;1.88;;;1.70;;
30048;SDS011;16879;50.852;15.602;2023-09-19T08:23:44;1.98;;;1.88;;
30048;SDS011;16879;50.852;15.602;2023-09-19T08:26:11;6.57;;;2.05;;
30048;SDS011;16879;50.852;15.602;2023-09-19T08:28:37;1.80;;;1.70;;
30048;SDS011;16879;50.852;15.602;2023-09-19T08:31:06;2.03;;;1.65;;
30048;SDS011;16879;50.852;15.602;2023-09-19T08:33:34;4.25;;;1.48;;
30048;SDS011;16879;50.852;15.602;2023-09-19T08:36:04;2.10;;;1.73;;
30048;SDS011;16879;50.852;15.602;2023-09-19T08:38:33;2.65;;;1.38;;
30048;SDS011;16879;50.852;15.602;2023-09-19T08:41:00;3.65;;;1.73;;
30048;SDS011;16879;50.852;15.602;2023-09-19T08:43:30;2.13;;;1.70;;
30048;SDS011;16879;50.852;15.602;2023-09-19T08:48:31;3.83;;;2.03;;
30048;SDS011;16879;50.852;15.602;2023-09-19T08:51:02;3.97;;;1.88;;
30048;SDS011;16879;50.852;15.602;2023-09-19T08:56:25;2.35;;;1.75;;
30048;SDS011;16879;50.852;15.602;2023-09-19T08:58:55;1.70;;;1.60;;
30048;SDS011;16879;50.852;15.602;2023-09-19T09:01:26;3.20;;;1.67;;
30048;SDS011;16879;50.852;15.602;2023-09-19T09:03:53;1.90;;;1.70;;
30048;SDS011;16879;50.852;15.602;2023-09-19T09:06:21;3.63;;;1.80;;
30048;SDS011;16879;50.852;15.602;2023-09-19T09:08:48;4.78;;;1.77;;
30048;SDS011;16879;50.852;15.602;2023-09-19T09:11:18;3.50;;;2.67;;
30048;SDS011;16879;50.852;15.602;2023-09-19T09:13:46;4.82;;;1.58;;
30048;SDS011;16879;50.852;15.602;2023-09-19T09:16:13;2.88;;;1.55;;
30048;SDS011;16879;50.852;15.602;2023-09-19T09:18:45;3.67;;;2.03;;
30048;SDS011;16879;50.852;15.602;2023-09-19T09:21:12;3.05;;;1.95;;
30048;SDS011;16879;50.852;15.602;2023-09-19T09:23:40;2.88;;;1.88;;
30048;SDS011;16879;50.852;15.602;2023-09-19T09:26:06;2.47;;;2.00;;
30048;SDS011;16879;50.852;15.602;2023-09-19T09:28:34;1.92;;;1.65;;
30048;SDS011;16879;50.852;15.602;2023-09-19T09:31:04;2.00;;;1.33;;
30048;SDS011;16879;50.852;15.602;2023-09-19T09:33:35;1.57;;;1.47;;
30048;SDS011;16879;50.852;15.602;2023-09-19T09:36:02;1.95;;;1.75;;
30048;SDS011;16879;50.852;15.602;2023-09-19T09:38:42;1.60;;;1.50;;
30048;SDS011;16879;50.852;15.602;2023-09-19T09:41:10;2.90;;;1.40;;
30048;SDS011;16879;50.852;15.602;2023-09-19T09:43:41;1.50;;;1.40;;
30048;SDS011;16879;50.852;15.602;2023-09-19T09:54:27;2.08;;;1.35;;
30048;SDS011;16879;50.852;15.602;2023-09-19T09:57:07;1.38;;;1.27;;
30048;SDS011;16879;50.852;15.602;2023-09-19T09:59:46;3.13;;;1.50;;
30048;SDS011;16879;50.852;15.602;2023-09-19T10:02:17;3.33;;;1.52;;
30048;SDS011;16879;50.852;15.602;2023-09-19T10:04:51;2.20;;;1.65;;
30048;SDS011;16879;50.852;15.602;2023-09-19T10:07:32;1.77;;;1.67;;
30048;SDS011;16879;50.852;15.602;2023-09-19T10:10:01;2.28;;;1.45;;
30048;SDS011;16879;50.852;15.602;2023-09-19T10:12:58;2.58;;;1.67;;
30048;SDS011;16879;50.852;15.602;2023-09-19T10:15:29;2.38;;;1.48;;
30048;SDS011;16879;50.852;15.602;2023-09-19T10:17:57;1.35;;;1.25;;
30048;SDS011;16879;50.852;15.602;2023-09-19T10:20:26;1.58;;;1.30;;
30048;SDS011;16879;50.852;15.602;2023-09-19T10:23:06;3.60;;;1.67;;
30048;SDS011;16879;50.852;15.602;2023-09-19T10:25:43;1.50;;;1.20;;
30048;SDS011;16879;50.852;15.602;2023-09-19T10:28:13;3.25;;;1.65;;
30048;SDS011;16879;50.852;15.602;2023-09-19T10:30:44;1.60;;;1.50;;
30048;SDS011;16879;50.852;15.602;2023-09-19T10:33:22;1.92;;;1.25;;
30048;SDS011;16879;50.852;15.602;2023-09-19T10:35:52;4.32;;;1.38;;
30048;SDS011;16879;50.852;15.602;2023-09-19T10:38:24;2.00;;;1.27;;
30048;SDS011;16879;50.852;15.602;2023-09-19T10:40:56;3.50;;;1.70;;
30048;SDS011;16879;50.852;15.602;2023-09-19T10:43:25;1.42;;;1.23;;
30048;SDS011;16879;50.852;15.602;2023-09-19T10:45:55;1.92;;;1.65;;
30048;SDS011;16879;50.852;15.602;2023-09-19T10:48:26;2.63;;;1.48;;
30048;SDS011;16879;50.852;15.602;2023-09-19T10:51:04;2.35;;;1.70;;
30048;SDS011;16879;50.852;15.602;2023-09-19T10:56:18;2.30;;;1.48;;
30048;SDS011;16879;50.852;15.602;2023-09-19T10:59:08;1.52;;;1.42;;
30048;SDS011;16879;50.852;15.602;2023-09-19T11:01:48;2.27;;;1.70;;
30048;SDS011;16879;50.852;15.602;2023-09-19T11:04:28;4.17;;;1.47;;
30048;SDS011;16879;50.852;15.602;2023-09-19T11:07:14;1.80;;;1.58;;
30048;SDS011;16879;50.852;15.602;2023-09-19T11:16:02;4.60;;;1.80;;
30048;SDS011;16879;50.852;15.602;2023-09-19T11:26:49;1.98;;;1.45;;
30048;SDS011;16879;50.852;15.602;2023-09-19T11:29:30;2.75;;;1.92;;
30048;SDS011;16879;50.852;15.602;2023-09-19T11:31:56;1.98;;;1.80;;
30048;SDS011;16879;50.852;15.602;2023-09-19T11:39:37;3.50;;;1.70;;
30048;SDS011;16879;50.852;15.602;2023-09-19T11:45:47;2.15;;;1.50;;
30048;SDS011;16879;50.852;15.602;2023-09-19T11:48:12;2.92;;;1.48;;
30048;SDS011;16879;50.852;15.602;2023-09-19T11:50:44;4.78;;;1.92;;
30048;SDS011;16879;50.852;15.602;2023-09-19T11:53:12;2.40;;;1.83;;
30048;SDS011;16879;50.852;15.602;2023-09-19T11:55:39;3.80;;;1.98;;
30048;SDS011;16879;50.852;15.602;2023-09-19T11:58:08;2.40;;;1.80;;
30048;SDS011;16879;50.852;15.602;2023-09-19T12:00:37;4.93;;;2.10;;
30048;SDS011;16879;50.852;15.602;2023-09-19T12:03:11;4.25;;;2.15;;
30048;SDS011;16879;50.852;15.602;2023-09-19T12:05:39;2.20;;;1.95;;
30048;SDS011;16879;50.852;15.602;2023-09-19T12:08:06;3.72;;;1.50;;
30048;SDS011;16879;50.852;15.602;2023-09-19T12:10:55;2.83;;;2.05;;
30048;SDS011;16879;50.852;15.602;2023-09-19T12:13:21;4.55;;;1.90;;
30048;SDS011;16879;50.852;15.602;2023-09-19T12:15:47;4.53;;;1.67;;
30048;SDS011;16879;50.852;15.602;2023-09-19T12:18:28;2.03;;;1.75;;
30048;SDS011;16879;50.852;15.602;2023-09-19T12:20:54;4.72;;;1.75;;
30048;SDS011;16879;50.852;15.602;2023-09-19T12:23:23;3.35;;;2.03;;
30048;SDS011;16879;50.852;15.602;2023-09-19T12:25:51;2.00;;;1.80;;
30048;SDS011;16879;50.852;15.602;2023-09-19T12:28:19;3.78;;;1.83;;
30048;SDS011;16879;50.852;15.602;2023-09-19T12:30:48;2.15;;;1.45;;
30048;SDS011;16879;50.852;15.602;2023-09-19T12:33:18;3.25;;;1.73;;
30048;SDS011;16879;50.852;15.602;2023-09-19T12:35:46;2.22;;;1.85;;
30048;SDS011;16879;50.852;15.602;2023-09-19T12:38:25;2.67;;;1.90;;
30048;SDS011;16879;50.852;15.602;2023-09-19T12:41:01;2.00;;;1.50;;
30048;SDS011;16879;50.852;15.602;2023-09-19T12:43:31;2.30;;;1.35;;
30048;SDS011;16879;50.852;15.602;2023-09-19T12:46:07;2.25;;;1.63;;
30048;SDS011;16879;50.852;15.602;2023-09-19T12:48:33;2.67;;;1.48;;
30048;SDS011;16879;50.852;15.602;2023-09-19T12:51:03;2.72;;;1.70;;
30048;SDS011;16879;50.852;15.602;2023-09-19T12:53:38;3.03;;;1.70;;
30048;SDS011;16879;50.852;15.602;2023-09-19T12:56:07;4.03;;;2.10;;
30048;SDS011;16879;50.852;15.602;2023-09-19T12:58:34;1.73;;;1.20;;
30048;SDS011;16879;50.852;15.602;2023-09-19T13:01:20;2.35;;;1.35;;
30048;SDS011;16879;50.852;15.602;2023-09-19T13:06:55;1.65;;;1.30;;
30048;SDS011;16879;50.852;15.602;2023-09-19T13:09:25;2.05;;;1.83;;
30048;SDS011;16879;50.852;15.602;2023-09-19T13:12:03;1.70;;;1.40;;
30048;SDS011;16879;50.852;15.602;2023-09-19T13:14:32;2.13;;;1.50;;
30048;SDS011;16879;50.852;15.602;2023-09-19T13:17:08;2.72;;;1.63;;
30048;SDS011;16879;50.852;15.602;2023-09-19T13:19:49;2.70;;;1.60;;
30048;SDS011;16879;50.852;15.602;2023-09-19T13:25:20;1.60;;;1.50;;
30048;SDS011;16879;50.852;15.602;2023-09-19T13:27:51;2.58;;;1.75;;
30048;SDS011;16879;50.852;15.602;2023-09-19T13:30:21;2.60;;;1.58;;
30048;SDS011;16879;50.852;15.602;2023-09-19T13:32:50;1.80;;;1.65;;
30048;SDS011;16879;50.852;15.602;2023-09-19T13:35:17;2.13;;;1.58;;
30048;SDS011;16879;50.852;15.602;2023-09-19T13:37:43;1.67;;;1.20;;
30048;SDS011;16879;50.852;15.602;2023-09-19T13:40:14;2.13;;;1.40;;
30048;SDS011;16879;50.852;15.602;2023-09-19T13:42:41;1.70;;;1.50;;
30048;SDS011;16879;50.852;15.602;2023-09-19T13:45:08;2.13;;;1.60;;
30048;SDS011;16879;50.852;15.602;2023-09-19T13:47:37;2.78;;;1.65;;
30048;SDS011;16879;50.852;15.602;2023-09-19T13:50:03;2.47;;;1.80;;
30048;SDS011;16879;50.852;15.602;2023-09-19T13:52:31;22.52;;;2.10;;
30048;SDS011;16879;50.852;15.602;2023-09-19T13:54:59;2.40;;;1.70;;
30048;SDS011;16879;50.852;15.602;2023-09-19T13:57:25;2.08;;;1.60;;
30048;SDS011;16879;50.852;15.602;2023-09-19T13:59:52;1.77;;;1.67;;
30048;SDS011;16879;50.852;15.602;2023-09-19T14:02:24;3.60;;;1.70;;
30048;SDS011;16879;50.852;15.602;2023-09-19T14:04:50;2.17;;;1.77;;
30048;SDS011;16879;50.852;15.602;2023-09-19T14:07:17;2.10;;;1.35;;
30048;SDS011;16879;50.852;15.602;2023-09-19T14:09:45;3.40;;;1.70;;
30048;SDS011;16879;50.852;15.602;2023-09-19T14:12:11;1.77;;;1.67;;
30048;SDS011;16879;50.852;15.602;2023-09-19T14:14:37;2.13;;;1.75;;
30048;SDS011;16879;50.852;15.602;2023-09-19T14:17:04;2.22;;;1.70;;
30048;SDS011;16879;50.852;15.602;2023-09-19T14:19:32;2.88;;;2.17;;
30048;SDS011;16879;50.852;15.602;2023-09-19T14:21:58;2.80;;;2.20;;
30048;SDS011;16879;50.852;15.602;2023-09-19T14:24:27;1.83;;;1.60;;
30048;SDS011;16879;50.852;15.602;2023-09-19T14:26:53;2.20;;;2.00;;
30048;SDS011;16879;50.852;15.602;2023-09-19T14:29:19;3.03;;;1.52;;
30048;SDS011;16879;50.852;15.602;2023-09-19T14:31:45;4.25;;;1.55;;
30048;SDS011;16879;50.852;15.602;2023-09-19T14:34:11;1.80;;;1.50;;
30048;SDS011;16879;50.852;15.602;2023-09-19T14:36:37;1.67;;;1.58;;
30048;SDS011;16879;50.852;15.602;2023-09-19T14:39:06;1.83;;;1.73;;
30048;SDS011;16879;50.852;15.602;2023-09-19T14:41:35;3.05;;;1.95;;
30048;SDS011;16879;50.852;15.602;2023-09-19T14:44:04;1.63;;;1.52;;
30048;SDS011;16879;50.852;15.602;2023-09-19T14:46:30;1.33;;;1.23;;
30048;SDS011;16879;50.852;15.602;2023-09-19T14:48:56;1.85;;;1.58;;
30048;SDS011;16879;50.852;15.602;2023-09-19T14:51:25;1.42;;;1.27;;
30048;SDS011;16879;50.852;15.602;2023-09-19T14:53:51;2.25;;;1.50;;
30048;SDS011;16879;50.852;15.602;2023-09-19T14:56:18;1.65;;;1.55;;
30048;SDS011;16879;50.852;15.602;2023-09-19T14:58:46;3.13;;;2.65;;
30048;SDS011;16879;50.852;15.602;2023-09-19T15:01:13;2.40;;;1.70;;
30048;SDS011;16879;50.852;15.602;2023-09-19T15:03:40;2.17;;;1.88;;
30048;SDS011;16879;50.852;15.602;2023-09-19T15:06:11;3.10;;;1.30;;
30048;SDS011;16879;50.852;15.602;2023-09-19T15:08:45;3.85;;;1.42;;
30048;SDS011;16879;50.852;15.602;2023-09-19T15:11:16;1.73;;;1.27;;
30048;SDS011;16879;50.852;15.602;2023-09-19T15:13:43;1.63;;;1.40;;
30048;SDS011;16879;50.852;15.602;2023-09-19T15:16:10;1.55;;;1.20;;
30048;SDS011;16879;50.852;15.602;2023-09-19T15:18:40;3.55;;;1.25;;
30048;SDS011;16879;50.852;15.602;2023-09-19T15:21:10;1.88;;;1.38;;
30048;SDS011;16879;50.852;15.602;2023-09-19T15:23:38;2.33;;;1.20;;
30048;SDS011;16879;50.852;15.602;2023-09-19T15:26:06;1.38;;;1.25;;
30048;SDS011;16879;50.852;15.602;2023-09-19T15:28:39;3.07;;;1.60;;
30048;SDS011;16879;50.852;15.602;2023-09-19T15:31:06;2.50;;;1.50;;
30048;SDS011;16879;50.852;15.602;2023-09-19T15:33:34;1.27;;;1.17;;
30048;SDS011;16879;50.852;15.602;2023-09-19T15:36:02;2.65;;;2.42;;
30048;SDS011;16879;50.852;15.602;2023-09-19T15:38:29;5.07;;;2.97;;
30048;SDS011;16879;50.852;15.602;2023-09-19T15:40:59;4.10;;;2.65;;
30048;SDS011;16879;50.852;15.602;2023-09-19T15:43:25;5.50;;;2.60;;
30048;SDS011;16879;50.852;15.602;2023-09-19T15:45:53;1.77;;;1.67;;
30048;SDS011;16879;50.852;15.602;2023-09-19T15:48:20;2.92;;;1.67;;
30048;SDS011;16879;50.852;15.602;2023-09-19T15:50:46;4.28;;;2.15;;
30048;SDS011;16879;50.852;15.602;2023-09-19T15:53:14;7.93;;;2.90;;
30048;SDS011;16879;50.852;15.602;2023-09-19T15:55:42;10.73;;;2.70;;
30048;SDS011;16879;50.852;15.602;2023-09-19T15:58:09;4.38;;;3.97;;
30048;SDS011;16879;50.852;15.602;2023-09-19T16:00:37;3.47;;;3.15;;